createdAt,value
2019-04-24T00:04:10.689Z,9.77
2019-04-24T00:06:44.296Z,9.90
2019-04-24T00:09:12.764Z,9.70
2019-04-24T00:12:06.566Z,10.33
2019-04-24T00:17:29.144Z,10.70
2019-04-24T00:22:39.303Z,11.07
2019-04-24T00:25:41.050Z,10.80
2019-04-24T00:27:42.702Z,9.90
2019-04-24T00:30:08.659Z,10.47
2019-04-24T00:32:50.700Z,9.50
2019-04-24T00:37:58.671Z,9.17
2019-04-24T00:40:16.300Z,10.63
2019-04-24T00:43:01.949Z,10.00
2019-04-24T00:48:00.765Z,10.50
2019-04-24T00:50:14.834Z,10.20
2019-04-24T00:53:34.282Z,10.67
2019-04-24T00:55:47.357Z,9.73
2019-04-24T00:57:55.956Z,10.17
2019-04-24T01:00:37.497Z,9.77
2019-04-24T01:03:22.466Z,11.37
2019-04-24T01:08:47.088Z,10.40
2019-04-24T01:16:34.563Z,10.43
2019-04-24T01:18:59.746Z,10.43
2019-04-24T01:21:43.011Z,10.43
2019-04-24T01:26:35.289Z,9.73
2019-04-24T01:29:12.526Z,10.00
2019-04-24T01:31:46.250Z,11.33
2019-04-24T01:34:37.823Z,10.80
2019-04-24T01:37:30.505Z,10.67
2019-04-24T01:40:00.339Z,10.70
2019-04-24T01:45:16.638Z,11.37
2019-04-24T01:47:38.145Z,12.00
2019-04-24T01:50:10.418Z,11.40
2019-04-24T01:55:18.478Z,11.30
2019-04-24T01:57:41.245Z,11.27
2019-04-24T02:00:14.399Z,11.53
2019-04-24T02:05:16.571Z,12.17
2019-04-24T02:08:14.656Z,12.20
2019-04-24T02:10:50.599Z,13.77
2019-04-24T02:13:16.942Z,12.30
2019-04-24T02:15:38.837Z,12.20
2019-04-24T02:23:16.718Z,11.83
2019-04-24T02:28:24.130Z,12.13
2019-04-24T02:42:31.858Z,12.50
2019-04-24T02:57:24.302Z,13.47
2019-04-24T02:59:51.677Z,12.97
2019-04-24T03:02:33.945Z,13.20
2019-04-24T03:17:38.447Z,12.60
2019-04-24T03:20:29.609Z,12.73
2019-04-24T03:25:47.238Z,14.07
2019-04-24T03:28:09.590Z,17.30
2019-04-24T03:31:02.243Z,15.27
2019-04-24T03:43:39.294Z,12.80
2019-04-24T03:59:47.795Z,15.37
2019-04-24T04:02:50.327Z,14.60
2019-04-24T04:08:00.590Z,14.37
2019-04-24T04:15:20.424Z,15.30
2019-04-24T04:18:22.623Z,13.40
2019-04-24T04:28:21.227Z,14.00
2019-04-24T04:31:31.092Z,16.03
2019-04-24T04:41:55.021Z,14.13
2019-04-24T05:03:26.440Z,8.50
2019-04-24T05:06:38.042Z,9.03
2019-04-24T05:19:18.787Z,9.40
2019-04-24T05:27:12.299Z,9.80
2019-04-24T05:29:13.724Z,10.30
2019-04-24T05:31:48.631Z,11.00
2019-04-24T05:34:19.332Z,11.00
2019-04-24T05:36:58.130Z,15.70
2019-04-24T05:39:47.287Z,11.80
2019-04-24T05:42:17.613Z,11.13
2019-04-24T05:44:31.097Z,14.10
2019-04-24T05:47:19.205Z,12.30
2019-04-24T05:50:00.982Z,13.13
2019-04-24T05:52:39.449Z,12.43
2019-04-24T05:55:17.943Z,12.20
2019-04-24T05:57:57.097Z,12.00
2019-04-24T06:00:23.603Z,10.77
2019-04-24T06:11:04.897Z,11.80
2019-04-24T06:16:27.667Z,11.63
2019-04-24T06:24:21.449Z,10.80
2019-04-24T06:26:47.338Z,10.60
2019-04-24T06:29:38.000Z,9.80
2019-04-24T06:34:54.758Z,9.57
2019-04-24T06:37:27.761Z,10.30
2019-04-24T06:40:32.132Z,10.60
2019-04-24T06:50:49.118Z,10.87
2019-04-24T06:53:00.520Z,11.57
2019-04-24T06:55:38.223Z,12.30
2019-04-24T07:04:07.592Z,14.43
2019-04-24T07:22:31.131Z,12.70
2019-04-24T07:25:49.461Z,12.17
2019-04-24T07:30:41.111Z,14.73
2019-04-24T07:33:16.680Z,12.97
2019-04-24T07:35:56.894Z,15.70
2019-04-24T07:38:26.936Z,15.03
2019-04-24T07:41:06.165Z,11.80
2019-04-24T07:46:10.209Z,12.50
2019-04-24T07:48:51.938Z,13.20
2019-04-24T07:51:14.767Z,13.43
2019-04-24T07:56:52.820Z,11.70
2019-04-24T07:59:41.637Z,10.07
2019-04-24T08:02:06.526Z,10.23
2019-04-24T08:22:30.535Z,11.13
2019-04-24T08:27:37.477Z,10.77
2019-04-24T08:29:59.908Z,10.70
2019-04-24T08:32:32.742Z,22.57
2019-04-24T08:34:58.056Z,11.30
2019-04-24T08:37:53.807Z,9.80
2019-04-24T08:40:15.056Z,9.13
2019-04-24T08:43:12.155Z,8.90
2019-04-24T08:45:58.782Z,9.47
2019-04-24T08:48:48.480Z,8.93
2019-04-24T08:56:35.942Z,9.07
2019-04-24T08:59:07.813Z,8.70
2019-04-24T09:02:00.125Z,8.93
2019-04-24T09:07:36.970Z,9.40
2019-04-24T09:10:19.721Z,9.20
2019-04-24T09:13:11.358Z,8.73
2019-04-24T09:15:38.633Z,9.97
2019-04-24T09:18:14.259Z,9.30
2019-04-24T09:20:33.798Z,8.57
2019-04-24T09:23:02.964Z,8.63
2019-04-24T09:26:00.717Z,10.00
2019-04-24T09:28:34.620Z,10.63
2019-04-24T09:30:57.203Z,9.63
2019-04-24T09:36:33.568Z,9.30
2019-04-24T09:41:45.305Z,9.97
2019-04-24T09:46:35.172Z,9.10
2019-04-24T09:48:58.409Z,10.33
2019-04-24T09:51:36.927Z,10.20
2019-04-24T09:59:38.123Z,9.80
2019-04-24T10:10:14.251Z,8.20
2019-04-24T10:15:39.692Z,9.57
2019-04-24T10:17:50.877Z,9.03
2019-04-24T10:20:22.437Z,8.30
2019-04-24T10:23:29.303Z,8.60
2019-04-24T10:25:42.151Z,9.10
2019-04-24T10:29:06.666Z,9.70
2019-04-24T10:31:17.050Z,8.23
2019-04-24T10:34:05.752Z,13.30
2019-04-24T10:37:01.599Z,6.90
2019-04-24T10:40:09.148Z,6.10
2019-04-24T10:42:30.277Z,6.30
2019-04-24T10:48:01.714Z,6.17
2019-04-24T10:50:31.676Z,7.17
2019-04-24T10:53:13.252Z,6.03
2019-04-24T10:55:59.530Z,6.63
2019-04-24T10:58:14.185Z,7.17
2019-04-24T11:01:18.781Z,6.40
2019-04-24T11:06:47.470Z,6.93
2019-04-24T11:09:12.627Z,7.63
2019-04-24T11:12:01.889Z,7.70
2019-04-24T11:14:35.391Z,7.27
2019-04-24T11:17:22.612Z,6.53
2019-04-24T11:20:26.648Z,7.40
2019-04-24T11:23:18.663Z,8.63
2019-04-24T11:28:55.869Z,7.63
2019-04-24T11:31:34.851Z,6.40
2019-04-24T11:34:34.301Z,5.30
2019-04-24T11:40:22.024Z,5.70
2019-04-24T11:42:10.208Z,6.97
2019-04-24T11:44:54.858Z,6.50
2019-04-24T11:47:38.585Z,6.10
2019-04-24T11:53:09.356Z,6.77
2019-04-24T12:00:40.993Z,6.27
2019-04-24T12:03:38.211Z,5.50
2019-04-24T12:06:14.053Z,5.70
2019-04-24T12:14:05.566Z,5.60
2019-04-24T12:16:53.357Z,5.13
2019-04-24T12:24:50.267Z,4.33
2019-04-24T12:27:32.787Z,4.10
2019-04-24T12:29:55.780Z,4.53
2019-04-24T12:32:42.727Z,4.50
2019-04-24T12:35:22.147Z,3.90
2019-04-24T12:37:57.604Z,3.43
2019-04-24T12:40:51.789Z,4.03
2019-04-24T12:43:08.660Z,3.63
2019-04-24T12:45:48.341Z,3.73
2019-04-24T12:47:58.707Z,3.10
2019-04-24T12:50:43.792Z,3.80
2019-04-24T12:55:58.993Z,4.37
2019-04-24T12:58:50.661Z,5.27
2019-04-24T13:04:47.830Z,4.60
2019-04-24T13:07:19.653Z,6.70
2019-04-24T13:09:59.572Z,4.57
2019-04-24T13:18:13.067Z,3.60
2019-04-24T13:20:17.820Z,3.60
2019-04-24T13:22:53.139Z,4.23
2019-04-24T13:29:13.584Z,3.80
2019-04-24T13:31:56.479Z,3.30
2019-04-24T13:34:25.466Z,4.07
2019-04-24T13:39:37.844Z,4.03
2019-04-24T13:44:31.793Z,3.80
2019-04-24T13:47:04.729Z,4.97
2019-04-24T13:49:30.289Z,5.50
2019-04-24T13:52:23.287Z,5.30
2019-04-24T13:54:40.177Z,4.50
2019-04-24T13:57:07.193Z,4.17
2019-04-24T13:59:46.384Z,3.70
2019-04-24T14:02:16.052Z,5.07
2019-04-24T14:04:47.662Z,4.63
2019-04-24T14:17:26.307Z,4.80
2019-04-24T14:22:54.443Z,4.10
2019-04-24T14:28:05.040Z,4.30
2019-04-24T14:30:35.855Z,4.83
2019-04-24T14:33:06.851Z,4.33
2019-04-24T14:35:38.124Z,4.23
2019-04-24T14:38:19.405Z,4.20
2019-04-24T14:40:35.932Z,4.47
2019-04-24T14:43:28.536Z,3.90
2019-04-24T14:49:08.527Z,5.00
2019-04-24T14:51:21.413Z,4.37
2019-04-24T14:53:54.043Z,5.43
2019-04-24T14:56:20.773Z,4.50
2019-04-24T14:59:08.074Z,3.20
2019-04-24T15:01:25.320Z,4.40
2019-04-24T15:04:15.190Z,3.90
2019-04-24T15:07:20.891Z,4.23
2019-04-24T15:10:32.874Z,3.30
2019-04-24T15:13:44.695Z,3.27
2019-04-24T15:19:06.778Z,4.17
2019-04-24T15:21:21.905Z,3.83
2019-04-24T15:24:16.963Z,4.10
2019-04-24T15:26:25.874Z,4.77
2019-04-24T15:29:03.903Z,3.43
2019-04-24T15:31:31.687Z,4.33
2019-04-24T15:34:08.670Z,3.73
2019-04-24T15:36:33.814Z,5.90
2019-04-24T15:42:05.881Z,3.50
2019-04-24T15:47:22.380Z,3.50
2019-04-24T15:49:48.607Z,3.70
2019-04-24T15:51:42.148Z,3.53
2019-04-24T15:54:11.630Z,4.33
2019-04-24T15:56:40.916Z,3.90
2019-04-24T15:59:37.199Z,3.67
2019-04-24T16:02:24.262Z,3.37
2019-04-24T16:04:54.162Z,3.97
2019-04-24T16:07:14.856Z,4.90
2019-04-24T16:09:47.100Z,7.77
2019-04-24T16:12:18.912Z,2.60
2019-04-24T16:15:17.005Z,2.60
2019-04-24T16:17:56.823Z,2.50
2019-04-24T16:22:53.386Z,5.20
2019-04-24T16:25:27.671Z,3.57
2019-04-24T16:28:08.450Z,1.83
2019-04-24T16:30:31.501Z,1.17
2019-04-24T16:33:11.082Z,2.43
2019-04-24T16:35:41.470Z,1.73
2019-04-24T16:38:26.814Z,1.40
2019-04-24T16:43:36.869Z,1.40
2019-04-24T16:46:38.289Z,2.30
2019-04-24T16:48:37.435Z,2.93
2019-04-24T16:51:27.479Z,2.20
2019-04-24T16:53:55.854Z,2.17
2019-04-24T16:56:32.714Z,1.27
2019-04-24T16:58:53.608Z,0.90
2019-04-24T17:11:57.014Z,1.00
2019-04-24T17:19:53.157Z,1.03
2019-04-24T17:22:17.752Z,0.77
2019-04-24T17:25:29.977Z,1.17
2019-04-24T17:28:33.020Z,0.77
2019-04-24T17:33:31.611Z,0.77
2019-04-24T17:36:33.476Z,0.70
2019-04-24T17:43:22.105Z,0.60
2019-04-24T17:46:04.862Z,0.47
2019-04-24T17:48:53.097Z,0.68
2019-04-24T17:51:21.931Z,0.60
2019-04-24T17:54:05.001Z,0.50
2019-04-24T17:56:42.617Z,0.60
2019-04-24T17:58:58.546Z,0.70
2019-04-24T18:01:28.327Z,0.60
2019-04-24T18:03:57.986Z,0.88
2019-04-24T18:06:27.431Z,0.80
2019-04-24T18:09:19.443Z,0.50
2019-04-24T18:11:33.441Z,0.60
2019-04-24T18:14:04.639Z,1.40
2019-04-24T18:16:35.152Z,0.70
2019-04-24T18:19:07.071Z,0.60
2019-04-24T18:21:41.823Z,0.50
2019-04-24T18:24:36.390Z,0.77
2019-04-24T18:27:05.793Z,0.67
2019-04-24T18:29:35.517Z,0.47
2019-04-24T18:32:05.700Z,0.73
2019-04-24T18:34:37.238Z,0.60
2019-04-24T18:37:06.665Z,0.70
2019-04-24T18:39:45.686Z,0.63
2019-04-24T18:42:16.218Z,0.40
2019-04-24T18:44:45.656Z,0.63
2019-04-24T18:47:15.193Z,0.80
2019-04-24T18:49:44.896Z,0.60
2019-04-24T18:52:14.133Z,0.80
2019-04-24T18:54:43.626Z,0.73
2019-04-24T18:57:14.270Z,0.80
2019-04-24T18:59:43.463Z,0.83
2019-04-24T19:02:14.091Z,0.80
2019-04-24T19:04:44.891Z,0.60
2019-04-24T19:07:14.894Z,0.77
2019-04-24T19:09:44.081Z,0.87
2019-04-24T19:12:13.866Z,0.70
2019-04-24T19:14:43.264Z,0.90
2019-04-24T19:17:15.325Z,0.87
2019-04-24T19:19:48.046Z,1.03
2019-04-24T19:33:29.713Z,0.70
2019-04-24T19:36:01.447Z,0.80
2019-04-24T19:38:41.923Z,0.67
2019-04-24T19:41:15.137Z,0.80
2019-04-24T19:43:44.691Z,1.00
2019-04-24T19:46:16.674Z,1.07
2019-04-24T19:48:44.900Z,0.97
2019-04-24T19:51:16.529Z,0.87
2019-04-24T19:53:45.975Z,0.67
2019-04-24T19:56:15.928Z,1.10
2019-04-24T19:58:49.859Z,0.60
2019-04-24T20:01:21.908Z,0.67
2019-04-24T20:03:53.209Z,0.90
2019-04-24T20:06:23.506Z,0.70
2019-04-24T20:08:53.346Z,0.70
2019-04-24T20:11:41.303Z,0.87
2019-04-24T20:14:12.501Z,0.80
2019-04-24T20:16:47.909Z,0.90
2019-04-24T20:19:18.193Z,0.80
2019-04-24T20:21:48.361Z,0.73
2019-04-24T20:24:18.373Z,0.70
2019-04-24T20:26:47.807Z,0.70
2019-04-24T20:29:18.313Z,0.77
2019-04-24T20:31:47.844Z,0.57
2019-04-24T20:34:17.225Z,1.03
2019-04-24T20:36:46.713Z,0.80
2019-04-24T20:39:16.907Z,0.70
2019-04-24T20:41:46.255Z,1.07
2019-04-24T20:44:15.890Z,0.97
2019-04-24T20:46:45.434Z,0.60
2019-04-24T20:49:14.666Z,1.00
2019-04-24T20:51:44.036Z,0.77
2019-04-24T20:54:14.702Z,2.60
2019-04-24T20:56:44.113Z,1.00
2019-04-24T20:59:13.788Z,1.20
2019-04-24T21:01:44.826Z,1.20
2019-04-24T21:04:13.981Z,1.10
2019-04-24T21:06:49.783Z,1.50
2019-04-24T21:09:35.400Z,2.17
2019-04-24T21:12:05.841Z,1.90
2019-04-24T21:14:35.476Z,3.40
2019-04-24T21:17:05.028Z,2.00
2019-04-24T21:19:34.320Z,2.30
2019-04-24T21:22:06.218Z,1.90
2019-04-24T21:24:35.482Z,1.97
2019-04-24T21:27:04.808Z,1.57
2019-04-24T21:29:36.793Z,1.37
2019-04-24T21:32:05.980Z,1.30
2019-04-24T21:34:35.232Z,1.57
2019-04-24T21:37:04.951Z,1.70
2019-04-24T21:39:34.259Z,1.23
2019-04-24T21:42:05.984Z,1.70
2019-04-24T21:44:36.223Z,1.83
2019-04-24T21:47:05.564Z,12.00
2019-04-24T21:49:37.884Z,1.70
2019-04-24T21:52:07.110Z,1.70
2019-04-24T21:54:36.295Z,1.90
2019-04-24T21:57:08.743Z,2.07
2019-04-24T21:59:38.281Z,2.00
2019-04-24T22:02:25.230Z,1.70
2019-04-24T22:05:19.590Z,1.00
2019-04-24T22:07:49.023Z,2.17
2019-04-24T22:10:21.353Z,2.30
2019-04-24T22:12:52.223Z,1.83
2019-04-24T22:15:22.768Z,2.00
2019-04-24T22:17:52.647Z,1.57
2019-04-24T22:20:47.314Z,0.80
2019-04-24T22:23:48.639Z,1.97
2019-04-24T22:26:21.234Z,1.27
2019-04-24T22:28:52.870Z,1.30
2019-04-24T22:31:46.330Z,1.30
2019-04-24T22:34:48.926Z,1.30
2019-04-24T22:37:18.389Z,1.00
2019-04-24T22:39:56.941Z,1.23
2019-04-24T22:42:29.632Z,1.33
2019-04-24T22:45:00.281Z,1.00
2019-04-24T22:47:30.794Z,1.20
2019-04-24T22:50:05.099Z,1.10
2019-04-24T22:52:34.846Z,2.33
2019-04-24T22:55:04.049Z,0.87
2019-04-24T22:57:34.851Z,0.90
2019-04-24T23:00:08.015Z,1.33
2019-04-24T23:02:37.235Z,1.60
2019-04-24T23:05:08.777Z,2.03
2019-04-24T23:07:39.512Z,2.73
2019-04-24T23:10:08.750Z,2.77
2019-04-24T23:12:38.814Z,2.63
2019-04-24T23:15:08.845Z,3.23
2019-04-24T23:17:38.184Z,1.73
2019-04-24T23:20:13.979Z,1.43
2019-04-24T23:22:51.666Z,3.50
2019-04-24T23:25:32.927Z,1.40
2019-04-24T23:28:28.894Z,1.23
2019-04-24T23:31:16.139Z,1.17
2019-04-24T23:33:49.556Z,0.90
2019-04-24T23:36:18.814Z,1.00
2019-04-24T23:38:48.054Z,0.87
2019-04-24T23:41:19.818Z,0.70
2019-04-24T23:43:49.045Z,0.70
2019-04-24T23:46:18.370Z,0.77
2019-04-24T23:48:49.913Z,1.30
2019-04-24T23:51:19.152Z,1.20
2019-04-24T23:53:51.614Z,0.73
2019-04-24T23:56:37.661Z,0.63
2019-04-24T23:59:07.176Z,0.73
